Time;durP1;ratioP1;P1;durP2;ratioP2;P2;SDS_P1;SDS_P2;PMS_P1;PMS_P2;Temp;Humidity;BMP_temperature;BMP_pressure;BME280_temperature;BME280_humidity;BME280_pressure;Samples;Min_cycle;Max_cycle;Signal;HPM_P1;HPM_P2
2021/06/30 00:02:12;;;;;;;21.42;9.55;;;;;;;19.91;69.74;98129.02;2144173;83;21419;-64
2021/06/30 00:05:13;;;;;;;22.45;9.33;;;;;;;19.92;70.76;98125.36;2143789;83;21819;-65
2021/06/30 00:08:13;;;;;;;21.62;8.90;;;;;;;19.92;70.76;98125.36;2144179;83;21007;-64
2021/06/30 00:11:14;;;;;;;22.87;9.53;;;;;;;19.95;70.67;98123.69;2143844;83;21028;-65
2021/06/30 00:14:14;;;;;;;26.20;9.95;;;;;;;19.99;71.01;98121.02;2144033;83;20987;-65
2021/06/30 00:17:15;;;;;;;22.90;9.88;;;;;;;20.07;71.25;98117.52;2143904;83;20999;-65
2021/06/30 00:20:16;;;;;;;22.15;10.03;;;;;;;20.13;71.97;98114.64;2143817;83;21024;-65
2021/06/30 00:23:16;;;;;;;23.60;10.25;;;;;;;20.16;71.22;98105.01;2144048;83;21553;-65
2021/06/30 00:26:17;;;;;;;22.75;9.20;;;;;;;20.18;71.97;98090.50;2143926;83;21422;-64
2021/06/30 00:29:17;;;;;;;23.95;9.08;;;;;;;20.23;71.71;98082.02;2143742;83;20975;-64
2021/06/30 00:32:18;;;;;;;23.57;9.53;;;;;;;20.29;71.25;98083.97;2143983;83;21006;-65
2021/06/30 00:35:18;;;;;;;20.20;9.68;;;;;;;20.36;71.63;98074.28;2144011;83;20999;-65
2021/06/30 00:38:19;;;;;;;21.82;9.90;;;;;;;20.38;71.41;98059.46;2144256;83;21000;-65
2021/06/30 00:41:19;;;;;;;21.97;9.80;;;;;;;20.40;71.59;98055.63;2143985;83;20968;-65
2021/06/30 00:44:19;;;;;;;22.73;9.80;;;;;;;20.43;71.90;98059.27;2143982;83;20941;-65
2021/06/30 00:47:21;;;;;;;22.13;9.43;;;;;;;20.49;71.86;98061.73;2143895;83;21016;-65
2021/06/30 00:50:22;;;;;;;21.52;9.45;;;;;;;20.54;71.42;98057.20;2143976;83;21486;-65
2021/06/30 00:53:23;;;;;;;21.87;9.78;;;;;;;20.57;72.23;98051.52;2143610;83;21074;-65
2021/06/30 00:56:24;;;;;;;22.00;9.80;;;;;;;20.60;71.92;98056.48;2130515;83;21024;-65
2021/06/30 00:59:24;;;;;;;22.02;10.00;;;;;;;20.61;72.01;98046.16;2127745;84;20984;-65
2021/06/30 01:02:24;;;;;;;23.85;9.95;;;;;;;20.64;72.14;98046.32;2127904;84;21033;-65
2021/06/30 01:05:25;;;;;;;22.07;9.33;;;;;;;20.66;71.76;98038.48;2127623;84;21511;-65
2021/06/30 01:08:25;;;;;;;22.45;9.65;;;;;;;20.71;71.70;98040.13;2127741;84;21024;-65
2021/06/30 01:11:26;;;;;;;21.55;10.32;;;;;;;20.79;71.42;98039.74;2127702;84;21019;-65
2021/06/30 01:14:26;;;;;;;23.00;8.90;;;;;;;20.84;71.30;98051.53;2127880;84;20976;-65
2021/06/30 01:17:27;;;;;;;24.20;10.82;;;;;;;20.85;74.09;98217.09;2127681;84;21094;-64
2021/06/30 01:20:27;;;;;;;23.57;10.72;;;;;;;20.69;74.71;98221.18;2127856;84;21035;-65
2021/06/30 01:23:28;;;;;;;24.72;11.10;;;;;;;20.68;75.76;98242.16;2127887;84;20964;-65
2021/06/30 01:26:29;;;;;;;24.03;11.07;;;;;;;20.86;74.35;98263.22;2127754;84;21083;-65
2021/06/30 01:29:29;;;;;;;25.55;10.82;;;;;;;20.91;75.30;98250.22;2127846;84;21470;-65
2021/06/30 01:32:30;;;;;;;23.07;9.13;;;;;;;21.00;74.61;98301.66;2127815;84;21043;-65
2021/06/30 01:35:31;;;;;;;22.55;7.87;;;;;;;21.01;73.11;98308.66;2127745;84;20996;-65
2021/06/30 01:38:31;;;;;;;21.45;7.92;;;;;;;20.67;71.93;98305.25;2127753;84;20983;-65
2021/06/30 01:41:32;;;;;;;19.67;6.85;;;;;;;20.33;72.61;98286.34;2127654;84;21020;-65
2021/06/30 01:44:33;;;;;;;19.82;6.97;;;;;;;20.08;73.10;98258.91;2171829;81;21024;-65
2021/06/30 01:47:33;;;;;;;19.42;6.65;;;;;;;19.82;74.56;98235.97;2172067;82;21577;-65
2021/06/30 01:50:33;;;;;;;17.42;5.90;;;;;;;19.55;74.77;98233.11;2172055;81;20957;-65
2021/06/30 01:53:34;;;;;;;19.00;5.95;;;;;;;19.39;74.64;98237.44;2172122;81;21025;-65
2021/06/30 01:56:34;;;;;;;19.25;5.85;;;;;;;19.21;74.35;98226.11;2184894;81;21489;-64
2021/06/30 01:59:35;;;;;;;17.73;5.50;;;;;;;19.24;73.85;98220.46;2188740;81;21458;-65
2021/06/30 02:02:35;;;;;;;17.23;5.30;;;;;;;19.23;73.92;98234.73;2189172;81;20973;-65
2021/06/30 02:05:36;;;;;;;18.80;5.85;;;;;;;19.19;74.21;98239.56;2188882;81;21041;-65
2021/06/30 02:08:36;;;;;;;18.98;6.00;;;;;;;19.17;73.29;98242.05;2188787;81;20968;-65
2021/06/30 02:11:37;;;;;;;17.48;5.62;;;;;;;19.16;73.35;98254.48;2188344;81;21744;-65
2021/06/30 02:14:38;;;;;;;20.52;6.10;;;;;;;19.14;73.85;98243.20;2188798;81;20996;-65
2021/06/30 02:17:38;;;;;;;17.80;6.28;;;;;;;19.10;74.93;98233.88;2188848;81;20980;-65
2021/06/30 02:20:38;;;;;;;19.98;6.42;;;;;;;19.04;75.60;98223.40;2188984;81;20942;-65
2021/06/30 02:23:39;;;;;;;20.57;6.65;;;;;;;19.03;75.41;98231.53;2188554;81;20985;-64
2021/06/30 02:26:39;;;;;;;22.10;7.03;;;;;;;19.02;74.89;98238.69;2188767;81;21008;-64
2021/06/30 02:29:40;;;;;;;18.57;6.37;;;;;;;19.04;74.52;98243.33;2188851;81;21081;-64
2021/06/30 02:32:40;;;;;;;19.87;6.33;;;;;;;19.06;75.15;98235.70;2188718;81;21574;-65
2021/06/30 02:35:41;;;;;;;18.37;6.25;;;;;;;18.99;74.77;98201.81;2188868;81;21063;-65
2021/06/30 02:38:44;;;;;;;19.87;6.22;;;;;;;18.99;74.77;98201.81;2188707;81;20985;-65
2021/06/30 02:41:47;;;;;;;21.60;7.55;;;;;;;19.03;75.43;98177.05;2173903;81;21111;-65
2021/06/30 02:44:48;;;;;;;20.43;8.03;;;;;;;18.94;75.38;98160.27;2188860;81;21024;-66
2021/06/30 02:47:48;;;;;;;21.77;7.05;;;;;;;18.91;75.34;98151.30;2188840;81;20965;-66
2021/06/30 02:50:48;;;;;;;18.70;6.65;;;;;;;18.94;75.29;98146.16;2188692;81;21424;-66
2021/06/30 02:53:49;;;;;;;19.57;6.95;;;;;;;18.99;75.10;98142.02;2189330;81;21416;-66
2021/06/30 02:56:49;;;;;;;17.12;6.30;;;;;;;19.04;75.27;98128.23;2188604;81;20969;-66
2021/06/30 02:59:50;;;;;;;22.65;7.37;;;;;;;18.93;76.46;98090.02;2188347;81;21064;-66
2021/06/30 03:02:51;;;;;;;22.85;7.87;;;;;;;18.87;75.29;98081.70;2188834;81;20981;-66
2021/06/30 03:05:51;;;;;;;21.25;7.37;;;;;;;18.90;75.60;98038.55;2188954;81;21021;-66
2021/06/30 03:08:51;;;;;;;19.92;7.47;;;;;;;18.82;77.89;98003.47;2188543;81;20988;-66
2021/06/30 03:11:52;;;;;;;24.47;7.90;;;;;;;18.71;77.86;97995.34;2188688;81;20972;-66
2021/06/30 03:14:52;;;;;;;23.12;8.35;;;;;;;18.66;77.57;98024.21;2188848;81;21435;-67
2021/06/30 03:17:53;;;;;;;20.17;7.22;;;;;;;18.63;78.72;98064.37;2188700;81;21036;-67
2021/06/30 03:20:53;;;;;;;24.63;8.00;;;;;;;18.61;78.34;98085.80;2188696;81;21001;-67
2021/06/30 03:23:54;;;;;;;21.12;8.28;;;;;;;18.59;78.72;98091.78;2188702;81;20996;-67
2021/06/30 03:26:55;;;;;;;20.52;7.70;;;;;;;18.58;78.73;98125.14;2188837;81;20972;-67
2021/06/30 03:29:56;;;;;;;22.50;8.48;;;;;;;18.59;79.06;98151.53;2188806;81;21068;-67
2021/06/30 03:32:56;;;;;;;23.12;7.50;;;;;;;18.55;79.48;98141.36;2188792;81;20992;-67
2021/06/30 03:35:57;;;;;;;20.25;7.50;;;;;;;18.51;80.06;98119.63;2188592;81;21020;-67
2021/06/30 03:38:57;;;;;;;20.97;7.80;;;;;;;18.49;79.53;98120.30;2188815;81;21506;-66
2021/06/30 03:41:58;;;;;;;21.10;7.80;;;;;;;18.47;79.05;98112.47;2188836;81;21507;-66
2021/06/30 03:44:58;;;;;;;20.72;7.53;;;;;;;18.51;78.72;98126.27;2188822;81;20984;-67
2021/06/30 03:47:59;;;;;;;19.90;6.72;;;;;;;18.50;79.34;98133.41;2188664;81;20971;-67
2021/06/30 03:50:59;;;;;;;19.23;7.17;;;;;;;18.53;78.55;98145.03;2188676;81;20948;-67
2021/06/30 03:53:59;;;;;;;20.25;7.40;;;;;;;18.60;78.50;98133.76;2188906;81;20945;-67
2021/06/30 03:57:00;;;;;;;19.90;6.92;;;;;;;18.61;78.04;98138.91;2188523;81;21061;-67
2021/06/30 04:00:01;;;;;;;20.25;7.17;;;;;;;18.68;78.05;98143.09;2188427;81;21467;-66
2021/06/30 04:03:01;;;;;;;21.12;7.62;;;;;;;18.66;77.93;98149.04;2188627;81;21581;-67
2021/06/30 04:06:01;;;;;;;19.15;6.97;;;;;;;18.70;77.72;98152.56;2188796;81;21450;-67
2021/06/30 04:09:02;;;;;;;20.35;7.45;;;;;;;18.77;77.43;98151.91;2188737;81;20987;-67
2021/06/30 04:12:02;;;;;;;20.95;7.70;;;;;;;18.87;77.35;98152.62;2188742;81;21027;-67
2021/06/30 04:15:03;;;;;;;20.05;7.00;;;;;;;18.94;76.98;98156.28;2188784;81;21043;-66
2021/06/30 04:18:03;;;;;;;21.95;7.95;;;;;;;19.07;76.88;98162.96;2188904;81;20964;-66
2021/06/30 04:21:04;;;;;;;20.72;7.17;;;;;;;19.09;76.77;98167.60;2188847;81;21032;-66
2021/06/30 04:24:06;;;;;;;18.30;6.87;;;;;;;19.03;76.58;98168.58;2188747;81;20984;-66
2021/06/30 04:27:06;;;;;;;18.37;6.85;;;;;;;19.07;76.56;98176.25;2127684;83;21019;-67
2021/06/30 04:30:09;;;;;;;18.77;7.47;;;;;;;19.14;76.37;98182.57;2143734;83;20999;-67
2021/06/30 04:33:09;;;;;;;21.23;7.60;;;;;;;19.21;76.42;98187.56;2127491;83;21080;-66
2021/06/30 04:36:10;;;;;;;18.87;7.45;;;;;;;19.32;76.42;98212.50;2143753;83;20987;-67
2021/06/30 04:39:10;;;;;;;19.15;7.53;;;;;;;19.52;76.20;98217.01;2143811;83;20969;-67
2021/06/30 04:42:11;;;;;;;18.05;7.30;;;;;;;19.67;75.77;98226.47;2143994;83;21031;-66
2021/06/30 04:45:12;;;;;;;19.98;7.03;;;;;;;19.71;75.51;98225.15;2143896;83;21019;-66
2021/06/30 04:48:12;;;;;;;22.27;8.05;;;;;;;19.77;75.50;98230.78;2143885;83;21527;-67
2021/06/30 04:51:12;;;;;;;21.73;8.83;;;;;;;19.85;75.45;98224.16;2143703;83;21447;-67
2021/06/30 04:54:14;;;;;;;20.35;8.88;;;;;;;20.00;75.47;98215.02;2143760;83;20975;-67
2021/06/30 04:57:14;;;;;;;19.20;7.40;;;;;;;20.28;75.42;98222.61;2138973;82;21047;-67
2021/06/30 05:00:14;;;;;;;21.07;7.17;;;;;;;20.58;74.96;98225.83;2137151;83;21260;-66
2021/06/30 05:03:15;;;;;;;22.37;7.50;;;;;;;20.74;74.23;98225.47;2137169;83;20964;-67
2021/06/30 05:06:15;;;;;;;21.57;6.90;;;;;;;20.87;73.87;98224.40;2137151;83;21507;-67
2021/06/30 05:09:16;;;;;;;19.55;7.10;;;;;;;21.16;73.54;98220.75;2137344;83;20976;-67
2021/06/30 05:12:17;;;;;;;20.72;6.87;;;;;;;21.54;72.82;98219.02;2137223;83;21561;-67
2021/06/30 05:15:18;;;;;;;21.55;8.98;;;;;;;21.86;72.06;98222.94;2137223;83;21529;-67
2021/06/30 05:18:18;;;;;;;18.77;7.60;;;;;;;22.21;71.69;98228.59;2137203;83;20992;-67
2021/06/30 05:21:19;;;;;;;21.80;8.50;;;;;;;22.44;69.91;98216.03;2137385;83;21035;-67
2021/06/30 05:24:20;;;;;;;18.52;6.20;;;;;;;22.51;69.21;98210.76;2137386;83;21008;-67
2021/06/30 05:27:21;;;;;;;16.57;5.83;;;;;;;22.76;69.14;98205.14;2137209;83;21083;-67
2021/06/30 05:30:21;;;;;;;17.17;5.60;;;;;;;22.96;67.27;98200.84;2137388;83;21462;-68
2021/06/30 05:33:22;;;;;;;17.10;6.00;;;;;;;23.11;68.14;98210.18;2137359;83;21502;-67
2021/06/30 05:36:22;;;;;;;19.70;6.50;;;;;;;23.41;67.88;98211.94;2137568;83;20970;-67
2021/06/30 05:39:23;;;;;;;17.60;6.20;;;;;;;23.71;67.94;98217.97;2137399;83;20988;-68
2021/06/30 05:42:23;;;;;;;19.87;6.37;;;;;;;24.05;67.04;98221.78;2137455;83;21039;-67
2021/06/30 05:45:24;;;;;;;19.87;6.20;;;;;;;24.30;65.68;98224.81;2137573;83;21027;-67
2021/06/30 05:48:24;;;;;;;17.47;6.20;;;;;;;24.35;65.35;98231.77;2137652;83;21023;-67
2021/06/30 05:51:25;;;;;;;18.20;5.73;;;;;;;24.63;65.70;98234.94;2137759;83;21015;-67
2021/06/30 05:54:25;;;;;;;17.73;6.07;;;;;;;24.75;64.67;98230.34;2137475;83;21020;-68
2021/06/30 05:57:26;;;;;;;15.43;5.50;;;;;;;24.71;64.35;98229.41;2137353;83;20984;-68
2021/06/30 06:00:26;;;;;;;16.90;5.73;;;;;;;24.59;64.42;98239.00;2137635;83;21019;-68
2021/06/30 06:03:27;;;;;;;16.53;5.73;;;;;;;24.48;64.78;98248.44;2137431;83;20976;-68
2021/06/30 06:06:27;;;;;;;17.57;6.37;;;;;;;24.46;64.77;98237.07;2137546;83;20981;-68
2021/06/30 06:09:27;;;;;;;17.00;6.30;;;;;;;24.50;64.75;98230.82;2137411;83;21511;-68
2021/06/30 06:12:28;;;;;;;19.40;6.53;;;;;;;24.61;64.70;98222.25;2137373;83;21044;-68
2021/06/30 06:15:28;;;;;;;18.00;6.23;;;;;;;24.83;64.09;98212.23;2137416;83;21047;-68
2021/06/30 06:18:29;;;;;;;19.30;6.57;;;;;;;25.06;63.82;98218.59;2137298;83;21061;-67
2021/06/30 06:21:29;;;;;;;18.83;7.17;;;;;;;25.06;63.21;98218.59;2137320;83;21032;-68
2021/06/30 06:24:30;;;;;;;17.43;7.10;;;;;;;25.03;63.08;98223.55;2137385;83;20984;-68
2021/06/30 06:27:30;;;;;;;19.93;7.23;;;;;;;25.16;63.41;98216.06;2137531;83;20984;-67
2021/06/30 06:30:31;;;;;;;17.60;7.00;;;;;;;25.28;62.81;98217.11;2137513;83;20992;-67
2021/06/30 06:33:31;;;;;;;17.83;7.17;;;;;;;25.26;62.55;98217.84;2137385;83;20988;-68
2021/06/30 06:36:31;;;;;;;20.27;7.27;;;;;;;25.29;62.31;98219.30;2137411;83;20941;-67
2021/06/30 06:39:32;;;;;;;18.70;7.37;;;;;;;25.29;62.41;98216.09;2137484;83;21044;-68
2021/06/30 06:42:32;;;;;;;20.93;7.73;;;;;;;25.31;62.23;98205.98;2137527;83;20988;-68
2021/06/30 06:45:33;;;;;;;19.80;7.50;;;;;;;25.28;61.77;98209.05;2136934;83;21039;-68
2021/06/30 06:48:34;;;;;;;19.83;8.17;;;;;;;25.38;62.21;98206.83;2137310;83;21024;-68
2021/06/30 06:51:34;;;;;;;22.00;7.97;;;;;;;25.51;62.00;98210.58;2137484;83;21563;-68
2021/06/30 06:54:35;;;;;;;19.77;8.47;;;;;;;25.58;61.56;98198.80;2137622;83;20953;-67
2021/06/30 06:57:35;;;;;;;22.33;8.33;;;;;;;25.71;61.57;98208.72;2130833;83;21046;-67
2021/06/30 07:00:36;;;;;;;20.17;8.03;;;;;;;25.75;60.77;98204.59;2128059;84;21045;-68
2021/06/30 07:03:36;;;;;;;23.83;8.50;;;;;;;25.81;61.14;98201.59;2127981;84;21036;-68
2021/06/30 07:06:36;;;;;;;19.57;7.93;;;;;;;25.86;61.04;98197.78;2128077;84;21009;-68
2021/06/30 07:09:37;;;;;;;21.30;7.47;;;;;;;26.36;60.65;98195.98;2127933;84;20968;-68
2021/06/30 07:12:38;;;;;;;19.13;7.13;;;;;;;26.74;58.81;98190.41;2127959;84;21067;-67
2021/06/30 07:15:41;;;;;;;19.10;7.63;;;;;;;27.10;58.78;98194.36;2127846;84;20969;-68
2021/06/30 07:18:41;;;;;;;19.07;7.40;;;;;;;27.27;58.11;98194.15;2165817;82;21024;-68
2021/06/30 07:21:41;;;;;;;20.93;8.00;;;;;;;27.30;56.57;98184.29;2172517;81;21463;-68
2021/06/30 07:24:42;;;;;;;18.70;7.70;;;;;;;27.06;56.89;98187.23;2172526;81;21020;-68
2021/06/30 07:27:42;;;;;;;18.93;7.10;;;;;;;26.77;58.08;98190.78;2172398;81;20969;-69
2021/06/30 07:30:43;;;;;;;18.42;6.75;;;;;;;27.14;57.49;98187.52;2172429;82;21036;-69
2021/06/30 07:33:44;;;;;;;20.62;7.53;;;;;;;27.27;57.61;98188.77;2172041;82;21603;-68
2021/06/30 07:36:45;;;;;;;18.57;7.30;;;;;;;27.64;56.78;98176.83;2172377;81;20977;-68
2021/06/30 07:39:45;;;;;;;18.70;7.80;;;;;;;27.63;55.86;98176.52;2172318;81;21021;-69
2021/06/30 07:42:46;;;;;;;19.67;7.63;;;;;;;27.92;56.21;98172.03;2172128;81;20981;-69
2021/06/30 07:45:46;;;;;;;19.70;7.20;;;;;;;28.32;55.61;98167.08;2172264;81;21024;-69
2021/06/30 07:48:48;;;;;;;19.00;7.40;;;;;;;28.66;55.28;98162.66;2172452;81;20989;-69
2021/06/30 07:51:50;;;;;;;17.37;6.65;;;;;;;28.86;54.76;98168.64;2172182;82;21538;-68
2021/06/30 07:54:51;;;;;;;16.95;6.90;;;;;;;29.05;54.43;98172.65;2127696;83;21061;-69
2021/06/30 07:57:51;;;;;;;20.27;7.20;;;;;;;29.22;52.90;98166.05;2134363;83;21020;-69
2021/06/30 08:00:52;;;;;;;19.40;6.97;;;;;;;29.20;52.72;98159.52;2137294;83;20984;-69
2021/06/30 08:03:52;;;;;;;18.73;7.43;;;;;;;29.20;53.49;98156.02;2137441;83;21040;-69
2021/06/30 08:06:53;;;;;;;16.80;6.80;;;;;;;29.38;53.32;98155.97;2137450;83;20936;-69
2021/06/30 08:09:53;;;;;;;18.07;7.60;;;;;;;29.46;52.45;98155.34;2137422;83;21015;-69
2021/06/30 08:12:53;;;;;;;18.37;6.60;;;;;;;29.57;51.29;98154.54;2137231;83;21094;-69
2021/06/30 08:15:54;;;;;;;20.63;7.40;;;;;;;29.62;52.20;98156.53;2137551;83;20988;-69
2021/06/30 08:18:54;;;;;;;18.80;6.93;;;;;;;29.53;51.80;98161.45;2137250;83;21001;-69
2021/06/30 08:21:55;;;;;;;19.00;6.97;;;;;;;29.61;51.70;98157.07;2137658;83;20976;-67
2021/06/30 08:24:55;;;;;;;18.40;6.27;;;;;;;29.86;51.72;98156.86;2137440;83;20952;-67
2021/06/30 08:27:59;;;;;;;16.97;6.13;;;;;;;29.93;50.36;98163.52;2137445;83;21476;-67
2021/06/30 08:30:58;;;;;;;15.72;6.17;;;;;;;29.96;49.94;98161.69;2165277;82;20973;-67
2021/06/30 08:33:58;;;;;;;18.50;5.58;;;;;;;30.16;49.91;98161.86;2182303;82;21024;-68
2021/06/30 08:37:01;;;;;;;19.13;6.10;;;;;;;30.44;48.63;98163.01;2182492;81;20969;-68
2021/06/30 08:40:01;;;;;;;15.65;5.28;;;;;;;30.64;48.07;98158.55;2118935;83;21047;-68
2021/06/30 08:43:02;;;;;;;14.93;4.90;;;;;;;30.87;46.84;98155.73;2165111;82;20985;-68
2021/06/30 08:46:02;;;;;;;16.73;4.50;;;;;;;31.27;45.74;98158.11;2182218;81;21037;-67
2021/06/30 08:49:02;;;;;;;15.07;4.20;;;;;;;30.80;44.14;98156.41;2182181;81;21326;-68
2021/06/30 08:52:03;;;;;;;11.53;4.17;;;;;;;29.71;43.13;98163.22;2182520;81;21043;-68
2021/06/30 08:55:03;;;;;;;20.00;4.83;;;;;;;29.41;44.70;98161.45;2182518;82;20992;-67
2021/06/30 08:58:04;;;;;;;16.03;4.60;;;;;;;28.98;45.93;98166.52;2175523;81;21025;-67
2021/06/30 09:01:04;;;;;;;13.73;4.57;;;;;;;29.29;45.75;98153.30;2172397;81;20993;-67
2021/06/30 09:04:07;;;;;;;17.90;4.50;;;;;;;29.69;46.39;98159.95;2172061;81;20981;-67
2021/06/30 09:07:07;;;;;;;14.30;4.17;;;;;;;30.17;45.35;98161.63;2127529;84;21027;-68
2021/06/30 09:10:08;;;;;;;11.50;4.03;;;;;;;29.88;43.30;98159.33;2127989;84;21036;-68
2021/06/30 09:13:08;;;;;;;12.67;4.70;;;;;;;30.05;43.83;98160.80;2128036;84;21012;-68
2021/06/30 09:16:09;;;;;;;12.58;4.22;;;;;;;30.23;44.32;98154.44;2127812;84;21412;-68
2021/06/30 09:37:18;;;;;;;12.13;4.90;;;;;;;29.41;44.12;98162.80;2127597;84;21582;-70
2021/06/30 09:40:18;;;;;;;17.57;5.47;;;;;;;29.66;43.85;98163.12;2127659;84;21048;-68
2021/06/30 09:43:19;;;;;;;13.97;5.23;;;;;;;29.94;43.98;98164.33;2128142;84;21232;-68
2021/06/30 09:46:19;;;;;;;16.63;5.77;;;;;;;29.38;42.69;98179.47;2128487;84;21088;-68
2021/06/30 09:49:20;;;;;;;14.67;5.50;;;;;;;29.15;44.05;98172.91;2127973;84;21008;-68
2021/06/30 09:52:21;;;;;;;16.50;5.63;;;;;;;28.99;44.00;98170.34;2127989;84;21008;-68
2021/06/30 09:55:22;;;;;;;15.28;5.28;;;;;;;28.74;44.54;98170.45;2127636;84;21668;-68
2021/06/30 09:58:22;;;;;;;17.13;5.50;;;;;;;28.97;44.34;98169.72;2134363;83;21064;-67
2021/06/30 10:01:23;;;;;;;15.63;5.43;;;;;;;28.89;43.73;98180.02;2137594;83;21706;-68
2021/06/30 10:04:23;;;;;;;17.73;5.70;;;;;;;28.34;45.04;98178.98;2137515;83;20992;-67
2021/06/30 10:07:24;;;;;;;19.35;5.42;;;;;;;27.89;45.69;98174.64;2136931;83;21024;-68
2021/06/30 10:10:25;;;;;;;15.00;4.53;;;;;;;27.43;45.66;98194.17;2137563;83;21007;-68
2021/06/30 10:13:25;;;;;;;10.55;4.50;;;;;;;26.88;45.41;98190.65;2137230;83;20968;-67
2021/06/30 10:16:26;;;;;;;14.57;4.37;;;;;;;26.48;46.50;98198.84;2137517;83;21513;-67
2021/06/30 10:19:26;;;;;;;15.40;4.40;;;;;;;27.18;46.23;98185.20;2137334;83;21535;-67
2021/06/30 10:22:27;;;;;;;15.50;4.30;;;;;;;27.73;46.96;98191.34;2137388;83;21004;-67
2021/06/30 10:25:27;;;;;;;13.27;4.00;;;;;;;28.24;46.62;98207.80;2137597;83;21015;-67
2021/06/30 10:28:27;;;;;;;11.50;3.80;;;;;;;27.54;45.37;98196.70;2137573;83;20975;-67
2021/06/30 10:31:28;;;;;;;12.90;3.63;;;;;;;27.54;46.24;98200.73;2137405;83;21055;-67
2021/06/30 10:34:29;;;;;;;8.97;3.40;;;;;;;27.48;45.76;98194.86;2137389;83;21012;-67
2021/06/30 10:37:30;;;;;;;7.17;3.15;;;;;;;27.70;45.89;98198.02;2137252;83;21511;-67
2021/06/30 10:40:31;;;;;;;12.00;3.60;;;;;;;27.80;44.71;98194.80;2137453;83;20984;-67
2021/06/30 10:43:31;;;;;;;14.50;3.53;;;;;;;27.48;44.71;98206.97;2137368;83;20985;-67
2021/06/30 10:46:31;;;;;;;8.83;3.20;;;;;;;27.68;44.60;98210.87;2137507;83;21040;-67
2021/06/30 10:49:32;;;;;;;7.63;3.00;;;;;;;27.79;46.27;98207.47;2137449;83;21023;-67
2021/06/30 10:52:32;;;;;;;6.13;2.87;;;;;;;27.90;44.25;98207.78;2137451;83;21123;-67
2021/06/30 10:58:35;;;;;;;7.37;3.00;;;;;;;27.90;44.06;98215.37;2164095;82;21013;-66
2021/06/30 11:01:36;;;;;;;8.67;2.87;;;;;;;27.84;45.01;98216.23;2179392;82;21004;-66
2021/06/30 11:04:36;;;;;;;7.80;2.77;;;;;;;27.71;44.39;98212.30;2179407;82;21026;-67
2021/06/30 11:07:37;;;;;;;13.15;3.00;;;;;;;27.58;44.36;98214.58;2178980;82;21569;-66
2021/06/30 11:10:37;;;;;;;8.47;2.60;;;;;;;27.44;44.20;98213.84;2179347;82;20953;-67
2021/06/30 11:13:38;;;;;;;9.03;3.20;;;;;;;27.17;44.66;98212.64;2179387;81;21081;-67
2021/06/30 11:16:38;;;;;;;8.53;2.97;;;;;;;27.48;46.26;98208.32;2179392;82;21025;-67
2021/06/30 11:19:39;;;;;;;8.20;2.85;;;;;;;27.42;44.45;98205.98;2179272;81;21527;-67
2021/06/30 11:22:40;;;;;;;15.40;2.83;;;;;;;27.66;44.71;98198.97;2179263;82;21297;-67
2021/06/30 11:25:40;;;;;;;7.57;2.60;;;;;;;27.92;44.22;98198.44;2179522;81;21094;-66
2021/06/30 11:28:40;;;;;;;6.27;2.60;;;;;;;28.15;43.41;98226.14;2179529;81;21039;-67
2021/06/30 11:31:41;;;;;;;6.97;2.23;;;;;;;28.31;44.55;98219.34;2179249;81;20977;-67
2021/06/30 11:34:41;;;;;;;7.17;2.20;;;;;;;27.92;42.89;98203.83;2179434;81;21064;-67
2021/06/30 11:37:42;;;;;;;9.37;2.20;;;;;;;27.92;42.89;98203.83;2179347;82;21480;-67
2021/06/30 11:43:44;;;;;;;8.43;2.17;;;;;;;28.27;43.18;98201.15;2115409;84;20989;-67
2021/06/30 11:46:45;;;;;;;12.63;2.00;;;;;;;28.07;44.49;98197.30;2131794;83;21527;-67
2021/06/30 11:49:45;;;;;;;10.60;2.10;;;;;;;28.25;43.87;98213.50;2131629;84;20981;-67
2021/06/30 11:52:46;;;;;;;6.67;1.80;;;;;;;28.22;42.17;98211.80;2131554;83;21099;-66
2021/06/30 11:55:46;;;;;;;5.63;1.80;;;;;;;28.12;42.88;98214.46;2131697;84;20984;-67
2021/06/30 11:58:47;;;;;;;6.60;1.83;;;;;;;28.32;42.31;98208.05;2135530;83;20984;-67
2021/06/30 12:01:48;;;;;;;;;;;;;;;28.55;42.02;98218.67;2139617;83;21016;-66
2021/06/30 12:04:49;;;;;;;5.93;2.00;;;;;;;28.48;42.15;98215.54;2117556;84;20429;-68
2021/06/30 12:07:49;;;;;;;3.80;1.67;;;;;;;28.57;40.50;98204.45;2117720;84;21028;-67
2021/06/30 12:10:49;;;;;;;5.13;1.50;;;;;;;28.62;41.02;98196.02;2117739;84;20989;-67
2021/06/30 12:13:50;;;;;;;6.80;1.67;;;;;;;28.61;41.89;98201.11;2117816;84;20974;-67
2021/06/30 12:16:50;;;;;;;6.87;1.63;;;;;;;28.91;40.02;98195.47;2117970;84;20984;-66
2021/06/30 12:19:51;;;;;;;10.13;1.98;;;;;;;28.83;40.87;98197.94;2117496;84;21117;-67
2021/06/30 12:22:52;;;;;;;7.70;2.00;;;;;;;28.80;41.80;98189.77;2127584;83;21472;-67
2021/06/30 12:25:53;;;;;;;7.30;2.00;;;;;;;28.76;40.62;98197.20;2127352;83;21563;-67
2021/06/30 12:28:53;;;;;;;6.97;1.93;;;;;;;28.73;40.17;98205.22;2127536;84;21019;-67
2021/06/30 12:31:54;;;;;;;7.23;1.97;;;;;;;28.48;41.00;98187.76;2127772;83;21083;-67
2021/06/30 12:34:54;;;;;;;3.37;1.47;;;;;;;28.90;40.37;98183.02;2127459;84;21012;-67
2021/06/30 12:37:55;;;;;;;4.17;1.55;;;;;;;29.36;40.63;98180.20;2127441;84;20989;-67
2021/06/30 12:40:55;;;;;;;5.80;1.60;;;;;;;29.68;39.94;98177.20;2127594;83;21484;-67
2021/06/30 12:43:56;;;;;;;6.67;1.83;;;;;;;29.52;39.29;98175.50;2127509;84;21005;-67
2021/06/30 12:46:56;;;;;;;5.50;1.80;;;;;;;29.00;39.38;98176.01;2127534;84;20992;-67
2021/06/30 12:49:57;;;;;;;5.07;1.97;;;;;;;28.37;41.24;98177.18;2127084;84;21020;-67
2021/06/30 12:52:57;;;;;;;3.10;1.67;;;;;;;28.61;40.60;98175.48;2127534;84;21000;-67
2021/06/30 12:55:59;;;;;;;4.03;1.35;;;;;;;28.80;41.19;98166.83;2126921;84;21137;-67
2021/06/30 12:58:59;;;;;;;8.53;2.07;;;;;;;29.19;40.93;98154.36;2127643;83;21009;-66
2021/06/30 13:02:00;;;;;;;6.12;1.35;;;;;;;29.12;39.62;98178.77;2127441;83;21017;-67
2021/06/30 13:05:00;;;;;;;3.20;1.30;;;;;;;29.06;40.10;98168.06;2127878;83;20977;-67
2021/06/30 13:08:01;;;;;;;6.00;1.60;;;;;;;28.54;40.63;98169.31;2127793;84;21041;-67
2021/06/30 13:11:01;;;;;;;4.40;1.77;;;;;;;28.92;42.64;98170.95;2127979;83;21004;-67
2021/06/30 13:14:02;;;;;;;3.47;1.47;;;;;;;29.28;40.35;98175.97;2127947;84;21000;-67
2021/06/30 13:17:03;;;;;;;6.08;2.10;;;;;;;29.28;40.35;98175.97;2127611;83;21582;-67
2021/06/30 13:20:03;;;;;;;14.10;2.27;;;;;;;28.64;40.39;98177.72;2127818;84;21052;-67
2021/06/30 13:23:03;;;;;;;6.17;1.93;;;;;;;28.79;41.12;98168.41;2127723;84;21021;-67
2021/06/30 13:26:13;;;;;;;4.03;1.80;;;;;;;29.29;39.79;98170.03;2127998;83;20985;-66
2021/06/30 13:35:11;;;;;;;3.90;1.25;;;;;;;29.52;39.43;98163.86;2099752;84;21044;-67
2021/06/30 13:38:12;;;;;;;3.27;1.57;;;;;;;29.37;38.39;98158.38;2127728;83;20996;-67
2021/06/30 13:41:13;;;;;;;5.62;1.60;;;;;;;29.39;38.96;98150.03;2127632;84;21004;-66
2021/06/30 13:44:13;;;;;;;5.60;1.60;;;;;;;29.65;39.50;98156.91;2127695;83;21091;-67
2021/06/30 13:47:14;;;;;;;5.40;1.40;;;;;;;29.62;40.05;98146.54;2127812;84;20965;-67
2021/06/30 13:50:14;;;;;;;5.83;1.60;;;;;;;29.67;38.66;98143.16;2127821;84;21507;-67
2021/06/30 13:53:15;;;;;;;3.50;1.47;;;;;;;29.79;39.50;98151.27;2127704;83;21566;-66
2021/06/30 13:56:16;;;;;;;4.13;1.80;;;;;;;29.75;38.63;98157.65;2127873;83;20961;-67
2021/06/30 13:59:17;;;;;;;5.85;1.77;;;;;;;29.72;38.83;98142.75;2127521;83;21018;-66
2021/06/30 14:02:17;;;;;;;4.97;1.33;;;;;;;29.25;39.42;98155.34;2128131;84;20974;-66
2021/06/30 14:05:18;;;;;;;1.50;1.15;;;;;;;29.29;38.54;98143.84;2127887;84;21009;-67
2021/06/30 14:08:19;;;;;;;6.57;1.73;;;;;;;29.48;38.44;98143.77;2127843;84;21564;-66
2021/06/30 14:11:19;;;;;;;6.13;1.80;;;;;;;29.43;38.62;98142.30;2127875;83;21055;-66
2021/06/30 14:14:19;;;;;;;3.70;1.60;;;;;;;29.35;38.76;98146.99;2127904;84;21069;-66
2021/06/30 14:17:20;;;;;;;8.20;1.80;;;;;;;29.49;38.05;98140.83;2128228;83;20993;-67
2021/06/30 14:20:21;;;;;;;7.15;1.47;;;;;;;29.73;38.86;98143.02;2127720;84;20993;-66
2021/06/30 14:23:23;;;;;;;7.30;1.67;;;;;;;29.83;38.21;98151.94;2128005;83;20977;-67
2021/06/30 14:26:23;;;;;;;2.30;1.30;;;;;;;30.00;37.21;98152.05;2099912;84;21064;-67
2021/06/30 14:29:24;;;;;;;4.67;1.53;;;;;;;30.04;37.98;98152.39;2128087;83;21045;-66
2021/06/30 14:32:24;;;;;;;4.70;1.37;;;;;;;30.10;36.50;98170.39;2127837;83;21060;-66